sensor_id;sensor_type;location;lat;lon;timestamp;temperature;humidity
79140;HTU21D;68546;59.142;37.948;2023-11-21T00:00:58;-5.12;58.73
79140;HTU21D;68546;59.142;37.948;2023-11-21T00:03:27;-5.13;58.61
79140;HTU21D;68546;59.142;37.948;2023-11-21T00:05:54;-5.15;58.52
79140;HTU21D;68546;59.142;37.948;2023-11-21T00:08:20;-5.16;58.52
79140;HTU21D;68546;59.142;37.948;2023-11-21T00:10:46;-5.16;58.59
79140;HTU21D;68546;59.142;37.948;2023-11-21T00:13:14;-5.16;58.59
79140;HTU21D;68546;59.142;37.948;2023-11-21T00:15:40;-5.16;58.54
79140;HTU21D;68546;59.142;37.948;2023-11-21T00:18:06;-5.19;58.38
79140;HTU21D;68546;59.142;37.948;2023-11-21T00:20:36;-5.20;58.31
79140;HTU21D;68546;59.142;37.948;2023-11-21T00:23:02;-5.20;58.22
79140;HTU21D;68546;59.142;37.948;2023-11-21T00:25:28;-5.24;58.19
79140;HTU21D;68546;59.142;37.948;2023-11-21T00:27:55;-5.25;58.19
79140;HTU21D;68546;59.142;37.948;2023-11-21T00:30:21;-5.27;58.14
79140;HTU21D;68546;59.142;37.948;2023-11-21T00:32:48;-5.29;58.03
79140;HTU21D;68546;59.142;37.948;2023-11-21T00:35:14;-5.31;57.90
79140;HTU21D;68546;59.142;37.948;2023-11-21T00:37:41;-5.33;57.84
79140;HTU21D;68546;59.142;37.948;2023-11-21T00:40:09;-5.37;57.61
79140;HTU21D;68546;59.142;37.948;2023-11-21T00:42:35;-5.40;57.66
79140;HTU21D;68546;59.142;37.948;2023-11-21T00:45:01;-5.44;57.60
79140;HTU21D;68546;59.142;37.948;2023-11-21T00:47:30;-5.45;57.64
79140;HTU21D;68546;59.142;37.948;2023-11-21T00:49:57;-5.48;57.59
79140;HTU21D;68546;59.142;37.948;2023-11-21T00:52:23;-5.50;57.64
79140;HTU21D;68546;59.142;37.948;2023-11-21T00:54:50;-5.53;57.77
79140;HTU21D;68546;59.142;37.948;2023-11-21T00:57:16;-5.54;57.89
79140;HTU21D;68546;59.142;37.948;2023-11-21T00:59:42;-5.54;57.70
79140;HTU21D;68546;59.142;37.948;2023-11-21T01:02:09;-5.55;57.65
79140;HTU21D;68546;59.142;37.948;2023-11-21T01:04:36;-5.57;57.67
79140;HTU21D;68546;59.142;37.948;2023-11-21T01:07:03;-5.59;57.78
79140;HTU21D;68546;59.142;37.948;2023-11-21T01:09:31;-5.59;57.69
79140;HTU21D;68546;59.142;37.948;2023-11-21T01:11:57;-5.60;57.69
79140;HTU21D;68546;59.142;37.948;2023-11-21T01:14:25;-5.61;57.61
79140;HTU21D;68546;59.142;37.948;2023-11-21T01:16:53;-5.64;57.61
79140;HTU21D;68546;59.142;37.948;2023-11-21T01:19:19;-5.64;57.51
79140;HTU21D;68546;59.142;37.948;2023-11-21T01:21:46;-5.67;57.51
79140;HTU21D;68546;59.142;37.948;2023-11-21T01:24:13;-5.67;57.55
79140;HTU21D;68546;59.142;37.948;2023-11-21T01:26:39;-5.67;57.43
79140;HTU21D;68546;59.142;37.948;2023-11-21T01:29:05;-5.70;57.13
79140;HTU21D;68546;59.142;37.948;2023-11-21T01:31:32;-5.73;57.10
79140;HTU21D;68546;59.142;37.948;2023-11-21T01:33:58;-5.74;57.26
79140;HTU21D;68546;59.142;37.948;2023-11-21T01:36:32;-5.75;57.44
79140;HTU21D;68546;59.142;37.948;2023-11-21T01:38:59;-5.75;57.42
79140;HTU21D;68546;59.142;37.948;2023-11-21T01:41:27;-5.76;57.48
79140;HTU21D;68546;59.142;37.948;2023-11-21T01:43:53;-5.76;57.47
79140;HTU21D;68546;59.142;37.948;2023-11-21T01:46:20;-5.76;57.52
79140;HTU21D;68546;59.142;37.948;2023-11-21T01:48:48;-5.75;57.32
79140;HTU21D;68546;59.142;37.948;2023-11-21T01:51:15;-5.76;57.06
79140;HTU21D;68546;59.142;37.948;2023-11-21T01:53:42;-5.78;56.96
79140;HTU21D;68546;59.142;37.948;2023-11-21T01:56:10;-5.78;57.03
79140;HTU21D;68546;59.142;37.948;2023-11-21T01:58:36;-5.79;57.00
79140;HTU21D;68546;59.142;37.948;2023-11-21T02:01:03;-5.82;56.91
79140;HTU21D;68546;59.142;37.948;2023-11-21T02:03:29;-5.84;56.94
79140;HTU21D;68546;59.142;37.948;2023-11-21T02:05:55;-5.84;57.10
79140;HTU21D;68546;59.142;37.948;2023-11-21T02:08:22;-5.83;57.17
79140;HTU21D;68546;59.142;37.948;2023-11-21T02:10:48;-5.83;56.87
79140;HTU21D;68546;59.142;37.948;2023-11-21T02:13:14;-5.84;56.79
79140;HTU21D;68546;59.142;37.948;2023-11-21T02:15:42;-5.84;56.78
79140;HTU21D;68546;59.142;37.948;2023-11-21T02:18:09;-5.84;56.83
79140;HTU21D;68546;59.142;37.948;2023-11-21T02:20:37;-5.85;56.83
79140;HTU21D;68546;59.142;37.948;2023-11-21T02:23:05;-5.85;56.82
79140;HTU21D;68546;59.142;37.948;2023-11-21T02:25:33;-5.84;56.87
79140;HTU21D;68546;59.142;37.948;2023-11-21T02:28:02;-5.84;56.96
79140;HTU21D;68546;59.142;37.948;2023-11-21T02:30:30;-5.82;56.98
79140;HTU21D;68546;59.142;37.948;2023-11-21T02:33:00;-5.81;56.98
79140;HTU21D;68546;59.142;37.948;2023-11-21T02:35:27;-5.82;56.98
79140;HTU21D;68546;59.142;37.948;2023-11-21T02:37:53;-5.79;57.07
79140;HTU21D;68546;59.142;37.948;2023-11-21T02:40:20;-5.78;57.19
79140;HTU21D;68546;59.142;37.948;2023-11-21T02:42:47;-5.74;57.39
79140;HTU21D;68546;59.142;37.948;2023-11-21T02:45:14;-5.72;57.45
79140;HTU21D;68546;59.142;37.948;2023-11-21T02:47:44;-5.71;57.33
79140;HTU21D;68546;59.142;37.948;2023-11-21T02:50:11;-5.69;57.22
79140;HTU21D;68546;59.142;37.948;2023-11-21T02:52:37;-5.68;57.11
79140;HTU21D;68546;59.142;37.948;2023-11-21T02:55:04;-5.68;57.06
79140;HTU21D;68546;59.142;37.948;2023-11-21T02:57:32;-5.67;57.19
79140;HTU21D;68546;59.142;37.948;2023-11-21T02:59:58;-5.69;57.07
79140;HTU21D;68546;59.142;37.948;2023-11-21T03:02:26;-5.68;57.00
79140;HTU21D;68546;59.142;37.948;2023-11-21T03:04:52;-5.69;57.02
79140;HTU21D;68546;59.142;37.948;2023-11-21T03:07:19;-5.69;57.18
79140;HTU21D;68546;59.142;37.948;2023-11-21T03:09:46;-5.69;57.27
79140;HTU21D;68546;59.142;37.948;2023-11-21T03:12:12;-5.69;57.29
79140;HTU21D;68546;59.142;37.948;2023-11-21T03:14:41;-5.68;57.22
79140;HTU21D;68546;59.142;37.948;2023-11-21T03:17:08;-5.69;57.10
79140;HTU21D;68546;59.142;37.948;2023-11-21T03:19:34;-5.72;57.16
79140;HTU21D;68546;59.142;37.948;2023-11-21T03:22:00;-5.73;57.20
79140;HTU21D;68546;59.142;37.948;2023-11-21T03:24:27;-5.76;57.34
79140;HTU21D;68546;59.142;37.948;2023-11-21T03:26:53;-5.76;57.31
79140;HTU21D;68546;59.142;37.948;2023-11-21T03:29:19;-5.76;57.41
79140;HTU21D;68546;59.142;37.948;2023-11-21T03:31:45;-5.77;57.44
79140;HTU21D;68546;59.142;37.948;2023-11-21T03:34:25;-5.77;57.54
79140;HTU21D;68546;59.142;37.948;2023-11-21T03:36:54;-5.76;57.58
79140;HTU21D;68546;59.142;37.948;2023-11-21T03:39:21;-5.76;57.60
79140;HTU21D;68546;59.142;37.948;2023-11-21T03:41:49;-5.75;57.66
79140;HTU21D;68546;59.142;37.948;2023-11-21T03:44:16;-5.74;57.69
79140;HTU21D;68546;59.142;37.948;2023-11-21T03:46:44;-5.73;57.74
79140;HTU21D;68546;59.142;37.948;2023-11-21T03:49:12;-5.73;57.63
79140;HTU21D;68546;59.142;37.948;2023-11-21T03:51:40;-5.72;57.68
79140;HTU21D;68546;59.142;37.948;2023-11-21T03:54:07;-5.72;57.75
79140;HTU21D;68546;59.142;37.948;2023-11-21T03:56:33;-5.71;57.83
79140;HTU21D;68546;59.142;37.948;2023-11-21T03:59:00;-5.70;57.93
79140;HTU21D;68546;59.142;37.948;2023-11-21T04:01:26;-5.69;57.84
79140;HTU21D;68546;59.142;37.948;2023-11-21T04:03:53;-5.67;57.95
79140;HTU21D;68546;59.142;37.948;2023-11-21T04:06:19;-5.65;57.93
79140;HTU21D;68546;59.142;37.948;2023-11-21T04:08:46;-5.65;57.80
79140;HTU21D;68546;59.142;37.948;2023-11-21T04:11:12;-5.65;57.77
79140;HTU21D;68546;59.142;37.948;2023-11-21T04:13:39;-5.68;57.84
79140;HTU21D;68546;59.142;37.948;2023-11-21T04:16:07;-5.67;57.89
79140;HTU21D;68546;59.142;37.948;2023-11-21T04:18:36;-5.65;57.94
79140;HTU21D;68546;59.142;37.948;2023-11-21T04:21:03;-5.65;57.93
79140;HTU21D;68546;59.142;37.948;2023-11-21T04:23:30;-5.65;57.87
79140;HTU21D;68546;59.142;37.948;2023-11-21T04:25:58;-5.68;57.87
79140;HTU21D;68546;59.142;37.948;2023-11-21T04:28:25;-5.68;57.87
79140;HTU21D;68546;59.142;37.948;2023-11-21T04:30:51;-5.68;57.93
79140;HTU21D;68546;59.142;37.948;2023-11-21T04:33:18;-5.67;58.08
79140;HTU21D;68546;59.142;37.948;2023-11-21T04:35:44;-5.67;58.10
79140;HTU21D;68546;59.142;37.948;2023-11-21T04:38:11;-5.65;58.10
79140;HTU21D;68546;59.142;37.948;2023-11-21T04:40:38;-5.69;58.06
79140;HTU21D;68546;59.142;37.948;2023-11-21T04:43:04;-5.67;58.15
79140;HTU21D;68546;59.142;37.948;2023-11-21T04:45:31;-5.67;58.25
79140;HTU21D;68546;59.142;37.948;2023-11-21T04:47:57;-5.64;58.23
79140;HTU21D;68546;59.142;37.948;2023-11-21T04:50:24;-5.67;58.19
79140;HTU21D;68546;59.142;37.948;2023-11-21T04:52:53;-5.64;58.32
79140;HTU21D;68546;59.142;37.948;2023-11-21T04:55:20;-5.65;58.25
79140;HTU21D;68546;59.142;37.948;2023-11-21T04:57:46;-5.64;58.22
79140;HTU21D;68546;59.142;37.948;2023-11-21T05:00:13;-5.64;58.13
79140;HTU21D;68546;59.142;37.948;2023-11-21T05:02:40;-5.64;58.19
79140;HTU21D;68546;59.142;37.948;2023-11-21T05:05:08;-5.65;58.22
79140;HTU21D;68546;59.142;37.948;2023-11-21T05:07:36;-5.64;58.27
79140;HTU21D;68546;59.142;37.948;2023-11-21T05:10:05;-5.64;58.39
79140;HTU21D;68546;59.142;37.948;2023-11-21T05:12:38;-5.64;58.42
79140;HTU21D;68546;59.142;37.948;2023-11-21T05:15:05;-5.62;58.53
79140;HTU21D;68546;59.142;37.948;2023-11-21T05:17:39;-5.62;58.49
79140;HTU21D;68546;59.142;37.948;2023-11-21T05:20:12;-5.60;58.51
79140;HTU21D;68546;59.142;37.948;2023-11-21T05:22:40;-5.59;58.42
79140;HTU21D;68546;59.142;37.948;2023-11-21T05:25:08;-5.58;58.38
79140;HTU21D;68546;59.142;37.948;2023-11-21T05:27:35;-5.56;58.40
79140;HTU21D;68546;59.142;37.948;2023-11-21T05:30:03;-5.55;58.48
79140;HTU21D;68546;59.142;37.948;2023-11-21T05:32:35;-5.53;58.43
79140;HTU21D;68546;59.142;37.948;2023-11-21T05:35:01;-5.53;58.41
79140;HTU21D;68546;59.142;37.948;2023-11-21T05:37:28;-5.49;58.35
79140;HTU21D;68546;59.142;37.948;2023-11-21T05:39:55;-5.50;58.43
79140;HTU21D;68546;59.142;37.948;2023-11-21T05:42:24;-5.49;58.44
79140;HTU21D;68546;59.142;37.948;2023-11-21T05:44:50;-5.47;58.42
79140;HTU21D;68546;59.142;37.948;2023-11-21T05:47:17;-5.47;58.41
79140;HTU21D;68546;59.142;37.948;2023-11-21T05:49:44;-5.46;58.46
79140;HTU21D;68546;59.142;37.948;2023-11-21T05:52:11;-5.44;58.56
79140;HTU21D;68546;59.142;37.948;2023-11-21T05:54:37;-5.44;58.58
79140;HTU21D;68546;59.142;37.948;2023-11-21T05:57:04;-5.43;58.51
79140;HTU21D;68546;59.142;37.948;2023-11-21T05:59:30;-5.41;58.61
79140;HTU21D;68546;59.142;37.948;2023-11-21T06:01:56;-5.40;58.65
79140;HTU21D;68546;59.142;37.948;2023-11-21T06:04:22;-5.39;58.58
79140;HTU21D;68546;59.142;37.948;2023-11-21T06:06:51;-5.38;58.65
79140;HTU21D;68546;59.142;37.948;2023-11-21T06:09:18;-5.37;58.67
79140;HTU21D;68546;59.142;37.948;2023-11-21T06:11:45;-5.35;58.51
79140;HTU21D;68546;59.142;37.948;2023-11-21T06:14:11;-5.35;58.48
79140;HTU21D;68546;59.142;37.948;2023-11-21T06:16:37;-5.34;58.58
79140;HTU21D;68546;59.142;37.948;2023-11-21T06:19:04;-5.33;58.63
79140;HTU21D;68546;59.142;37.948;2023-11-21T06:21:31;-5.32;58.64
79140;HTU21D;68546;59.142;37.948;2023-11-21T06:23:58;-5.30;58.66
79140;HTU21D;68546;59.142;37.948;2023-11-21T06:26:24;-5.30;58.74
79140;HTU21D;68546;59.142;37.948;2023-11-21T06:28:51;-5.28;58.74
79140;HTU21D;68546;59.142;37.948;2023-11-21T06:31:19;-5.26;58.83
79140;HTU21D;68546;59.142;37.948;2023-11-21T06:33:45;-5.24;58.93
79140;HTU21D;68546;59.142;37.948;2023-11-21T06:36:12;-5.22;58.98
79140;HTU21D;68546;59.142;37.948;2023-11-21T06:38:38;-5.19;58.92
79140;HTU21D;68546;59.142;37.948;2023-11-21T06:41:05;-5.18;58.93
79140;HTU21D;68546;59.142;37.948;2023-11-21T06:43:32;-5.17;58.96
79140;HTU21D;68546;59.142;37.948;2023-11-21T06:45:58;-5.15;58.96
79140;HTU21D;68546;59.142;37.948;2023-11-21T06:48:25;-5.13;59.02
79140;HTU21D;68546;59.142;37.948;2023-11-21T06:50:51;-5.11;59.12
79140;HTU21D;68546;59.142;37.948;2023-11-21T06:53:18;-5.07;59.22
79140;HTU21D;68546;59.142;37.948;2023-11-21T06:55:44;-5.03;59.24
79140;HTU21D;68546;59.142;37.948;2023-11-21T06:58:11;-5.01;59.30
79140;HTU21D;68546;59.142;37.948;2023-11-21T07:00:37;-4.97;59.41
79140;HTU21D;68546;59.142;37.948;2023-11-21T07:03:03;-4.94;59.38
79140;HTU21D;68546;59.142;37.948;2023-11-21T07:05:30;-4.93;59.18
79140;HTU21D;68546;59.142;37.948;2023-11-21T07:07:56;-4.90;59.15
79140;HTU21D;68546;59.142;37.948;2023-11-21T07:10:23;-4.89;59.09
79140;HTU21D;68546;59.142;37.948;2023-11-21T07:12:49;-4.87;59.14
79140;HTU21D;68546;59.142;37.948;2023-11-21T07:15:17;-4.85;59.16
79140;HTU21D;68546;59.142;37.948;2023-11-21T07:17:45;-4.84;59.14
79140;HTU21D;68546;59.142;37.948;2023-11-21T07:20:12;-4.81;59.30
79140;HTU21D;68546;59.142;37.948;2023-11-21T07:22:39;-4.78;59.32
79140;HTU21D;68546;59.142;37.948;2023-11-21T07:25:06;-4.76;59.09
79140;HTU21D;68546;59.142;37.948;2023-11-21T07:27:33;-4.75;59.05
79140;HTU21D;68546;59.142;37.948;2023-11-21T07:30:02;-4.73;59.06
79140;HTU21D;68546;59.142;37.948;2023-11-21T07:32:31;-4.73;58.92
79140;HTU21D;68546;59.142;37.948;2023-11-21T07:34:57;-4.73;58.87
79140;HTU21D;68546;59.142;37.948;2023-11-21T07:37:25;-4.72;58.78
79140;HTU21D;68546;59.142;37.948;2023-11-21T07:39:54;-4.73;58.77
79140;HTU21D;68546;59.142;37.948;2023-11-21T07:42:24;-4.72;58.86
79140;HTU21D;68546;59.142;37.948;2023-11-21T07:44:52;-4.72;58.74
79140;HTU21D;68546;59.142;37.948;2023-11-21T07:47:18;-4.72;58.64
79140;HTU21D;68546;59.142;37.948;2023-11-21T07:49:45;-4.71;58.68
79140;HTU21D;68546;59.142;37.948;2023-11-21T07:52:13;-4.70;58.65
79140;HTU21D;68546;59.142;37.948;2023-11-21T07:54:42;-4.72;58.61
79140;HTU21D;68546;59.142;37.948;2023-11-21T07:57:08;-4.72;58.70
79140;HTU21D;68546;59.142;37.948;2023-11-21T07:59:34;-4.71;58.73
79140;HTU21D;68546;59.142;37.948;2023-11-21T08:02:01;-4.70;58.67
79140;HTU21D;68546;59.142;37.948;2023-11-21T08:04:27;-4.69;58.63
79140;HTU21D;68546;59.142;37.948;2023-11-21T08:06:53;-4.67;58.58
79140;HTU21D;68546;59.142;37.948;2023-11-21T08:09:20;-4.69;58.54
79140;HTU21D;68546;59.142;37.948;2023-11-21T08:11:49;-4.68;58.57
79140;HTU21D;68546;59.142;37.948;2023-11-21T08:14:17;-4.69;58.53
79140;HTU21D;68546;59.142;37.948;2023-11-21T08:16:44;-4.68;58.42
79140;HTU21D;68546;59.142;37.948;2023-11-21T08:19:10;-4.71;58.27
79140;HTU21D;68546;59.142;37.948;2023-11-21T08:21:37;-4.74;58.06
79140;HTU21D;68546;59.142;37.948;2023-11-21T08:24:07;-4.75;58.01
79140;HTU21D;68546;59.142;37.948;2023-11-21T08:26:37;-4.79;57.72
79140;HTU21D;68546;59.142;37.948;2023-11-21T08:29:03;-4.82;57.63
79140;HTU21D;68546;59.142;37.948;2023-11-21T08:31:32;-4.85;57.35
79140;HTU21D;68546;59.142;37.948;2023-11-21T08:33:59;-4.88;57.10
79140;HTU21D;68546;59.142;37.948;2023-11-21T08:36:28;-4.93;57.25
79140;HTU21D;68546;59.142;37.948;2023-11-21T08:38:54;-4.94;57.34
79140;HTU21D;68546;59.142;37.948;2023-11-21T08:41:20;-4.95;57.35
79140;HTU21D;68546;59.142;37.948;2023-11-21T08:43:50;-4.95;57.11
79140;HTU21D;68546;59.142;37.948;2023-11-21T08:46:17;-4.95;57.23
79140;HTU21D;68546;59.142;37.948;2023-11-21T08:48:44;-4.94;56.97
79140;HTU21D;68546;59.142;37.948;2023-11-21T08:51:11;-4.97;56.60
79140;HTU21D;68546;59.142;37.948;2023-11-21T08:53:38;-4.98;56.30
79140;HTU21D;68546;59.142;37.948;2023-11-21T08:56:04;-5.02;56.07
79140;HTU21D;68546;59.142;37.948;2023-11-21T08:58:32;-5.05;56.00
79140;HTU21D;68546;59.142;37.948;2023-11-21T09:00:58;-5.08;56.02
79140;HTU21D;68546;59.142;37.948;2023-11-21T09:03:24;-5.11;54.75
79140;HTU21D;68546;59.142;37.948;2023-11-21T09:05:51;-5.16;54.78
79140;HTU21D;68546;59.142;37.948;2023-11-21T09:08:17;-5.22;54.71
79140;HTU21D;68546;59.142;37.948;2023-11-21T09:10:43;-5.27;54.79
79140;HTU21D;68546;59.142;37.948;2023-11-21T09:13:13;-5.30;54.90
79140;HTU21D;68546;59.142;37.948;2023-11-21T09:15:39;-5.35;54.47
79140;HTU21D;68546;59.142;37.948;2023-11-21T09:18:06;-5.37;54.71
79140;HTU21D;68546;59.142;37.948;2023-11-21T09:20:33;-5.40;54.71
79140;HTU21D;68546;59.142;37.948;2023-11-21T09:22:59;-5.41;54.40
79140;HTU21D;68546;59.142;37.948;2023-11-21T09:25:25;-5.46;54.17
79140;HTU21D;68546;59.142;37.948;2023-11-21T09:27:51;-5.50;54.13
79140;HTU21D;68546;59.142;37.948;2023-11-21T09:30:18;-5.56;54.02
79140;HTU21D;68546;59.142;37.948;2023-11-21T09:32:44;-5.60;53.87
79140;HTU21D;68546;59.142;37.948;2023-11-21T09:35:11;-5.68;53.84
79140;HTU21D;68546;59.142;37.948;2023-11-21T09:37:39;-5.72;53.96
79140;HTU21D;68546;59.142;37.948;2023-11-21T09:40:10;-5.74;53.97
79140;HTU21D;68546;59.142;37.948;2023-11-21T09:42:40;-5.78;53.88
79140;HTU21D;68546;59.142;37.948;2023-11-21T09:45:16;-5.81;54.01
79140;HTU21D;68546;59.142;37.948;2023-11-21T09:47:46;-5.82;54.31
79140;HTU21D;68546;59.142;37.948;2023-11-21T09:50:17;-5.78;54.69
79140;HTU21D;68546;59.142;37.948;2023-11-21T09:53:18;-5.77;54.81
79140;HTU21D;68546;59.142;37.948;2023-11-21T09:55:48;-5.74;54.88
79140;HTU21D;68546;59.142;37.948;2023-11-21T09:58:14;-5.73;54.84
79140;HTU21D;68546;59.142;37.948;2023-11-21T10:00:42;-5.72;54.85
79140;HTU21D;68546;59.142;37.948;2023-11-21T10:03:09;-5.71;54.98
79140;HTU21D;68546;59.142;37.948;2023-11-21T10:05:36;-5.70;55.14
79140;HTU21D;68546;59.142;37.948;2023-11-21T10:08:07;-5.69;55.02
79140;HTU21D;68546;59.142;37.948;2023-11-21T10:10:36;-5.72;54.58
79140;HTU21D;68546;59.142;37.948;2023-11-21T10:13:06;-5.74;54.33
79140;HTU21D;68546;59.142;37.948;2023-11-21T10:15:34;-5.78;54.05
79140;HTU21D;68546;59.142;37.948;2023-11-21T10:18:04;-5.82;54.08
79140;HTU21D;68546;59.142;37.948;2023-11-21T10:20:35;-5.82;54.33
79140;HTU21D;68546;59.142;37.948;2023-11-21T10:23:04;-5.83;54.53
79140;HTU21D;68546;59.142;37.948;2023-11-21T10:25:30;-5.81;54.68
79140;HTU21D;68546;59.142;37.948;2023-11-21T10:27:58;-5.78;54.85
79140;HTU21D;68546;59.142;37.948;2023-11-21T10:30:32;-5.76;54.81
79140;HTU21D;68546;59.142;37.948;2023-11-21T10:32:59;-5.75;54.71
79140;HTU21D;68546;59.142;37.948;2023-11-21T10:38:08;-5.73;54.87
79140;HTU21D;68546;59.142;37.948;2023-11-21T10:40:44;-5.70;54.91
79140;HTU21D;68546;59.142;37.948;2023-11-21T10:43:11;-5.69;54.95
79140;HTU21D;68546;59.142;37.948;2023-11-21T10:45:41;-5.67;55.04
79140;HTU21D;68546;59.142;37.948;2023-11-21T10:48:10;-5.64;55.03
79140;HTU21D;68546;59.142;37.948;2023-11-21T10:50:37;-5.61;54.77
79140;HTU21D;68546;59.142;37.948;2023-11-21T10:53:05;-5.61;54.43
79140;HTU21D;68546;59.142;37.948;2023-11-21T10:55:34;-5.64;54.49
79140;HTU21D;68546;59.142;37.948;2023-11-21T10:58:02;-5.65;54.69
79140;HTU21D;68546;59.142;37.948;2023-11-21T11:00:31;-5.67;54.66
79140;HTU21D;68546;59.142;37.948;2023-11-21T11:02:59;-5.67;54.66
79140;HTU21D;68546;59.142;37.948;2023-11-21T11:05:27;-5.67;54.74
79140;HTU21D;68546;59.142;37.948;2023-11-21T11:08:05;-5.69;54.56
79140;HTU21D;68546;59.142;37.948;2023-11-21T11:10:33;-5.70;54.39
79140;HTU21D;68546;59.142;37.948;2023-11-21T11:13:00;-5.73;54.30
79140;HTU21D;68546;59.142;37.948;2023-11-21T11:15:28;-5.76;54.37
79140;HTU21D;68546;59.142;37.948;2023-11-21T11:17:54;-5.78;54.55
79140;HTU21D;68546;59.142;37.948;2023-11-21T11:20:33;-5.79;54.68
79140;HTU21D;68546;59.142;37.948;2023-11-21T11:23:39;-5.82;54.60
79140;HTU21D;68546;59.142;37.948;2023-11-21T11:26:25;-5.85;54.58
79140;HTU21D;68546;59.142;37.948;2023-11-21T11:29:26;-5.88;54.68
79140;HTU21D;68546;59.142;37.948;2023-11-21T11:32:22;-5.91;54.59
79140;HTU21D;68546;59.142;37.948;2023-11-21T11:37:43;-5.97;54.72
79140;HTU21D;68546;59.142;37.948;2023-11-21T11:40:11;-5.99;54.94
79140;HTU21D;68546;59.142;37.948;2023-11-21T11:42:38;-6.00;54.98
79140;HTU21D;68546;59.142;37.948;2023-11-21T11:45:19;-6.00;55.14
79140;HTU21D;68546;59.142;37.948;2023-11-21T11:47:47;-6.01;55.14
79140;HTU21D;68546;59.142;37.948;2023-11-21T11:50:14;-6.02;55.25
79140;HTU21D;68546;59.142;37.948;2023-11-21T11:52:47;-6.03;55.48
79140;HTU21D;68546;59.142;37.948;2023-11-21T11:55:19;-6.02;55.62
79140;HTU21D;68546;59.142;37.948;2023-11-21T11:57:51;-6.01;55.71
79140;HTU21D;68546;59.142;37.948;2023-11-21T12:00:19;-5.99;55.81
79140;HTU21D;68546;59.142;37.948;2023-11-21T12:02:52;-5.98;55.84
79140;HTU21D;68546;59.142;37.948;2023-11-21T12:05:20;-5.97;55.92
79140;HTU21D;68546;59.142;37.948;2023-11-21T12:07:57;-5.98;55.97
79140;HTU21D;68546;59.142;37.948;2023-11-21T12:10:26;-5.97;56.04
79140;HTU21D;68546;59.142;37.948;2023-11-21T12:15:21;-5.97;56.21
79140;HTU21D;68546;59.142;37.948;2023-11-21T12:17:49;-5.94;56.33
79140;HTU21D;68546;59.142;37.948;2023-11-21T12:20:23;-5.93;56.51
79140;HTU21D;68546;59.142;37.948;2023-11-21T12:22:51;-5.90;56.58
79140;HTU21D;68546;59.142;37.948;2023-11-21T12:25:20;-5.90;56.63
79140;HTU21D;68546;59.142;37.948;2023-11-21T12:27:51;-5.88;56.64
79140;HTU21D;68546;59.142;37.948;2023-11-21T12:30:20;-5.88;56.69
79140;HTU21D;68546;59.142;37.948;2023-11-21T12:32:52;-5.86;56.77
79140;HTU21D;68546;59.142;37.948;2023-11-21T12:35:21;-5.86;56.70
79140;HTU21D;68546;59.142;37.948;2023-11-21T12:37:48;-5.85;56.81
79140;HTU21D;68546;59.142;37.948;2023-11-21T12:40:15;-5.85;56.89
79140;HTU21D;68546;59.142;37.948;2023-11-21T12:42:44;-5.86;56.93
79140;HTU21D;68546;59.142;37.948;2023-11-21T12:45:22;-5.85;56.93
79140;HTU21D;68546;59.142;37.948;2023-11-21T12:48:04;-5.86;56.97
79140;HTU21D;68546;59.142;37.948;2023-11-21T12:50:35;-5.86;57.05
79140;HTU21D;68546;59.142;37.948;2023-11-21T12:53:09;-5.85;57.12
79140;HTU21D;68546;59.142;37.948;2023-11-21T12:55:38;-5.85;57.22
79140;HTU21D;68546;59.142;37.948;2023-11-21T12:58:09;-5.84;57.34
79140;HTU21D;68546;59.142;37.948;2023-11-21T13:00:36;-5.82;57.48
79140;HTU21D;68546;59.142;37.948;2023-11-21T13:03:05;-5.79;57.58
79140;HTU21D;68546;59.142;37.948;2023-11-21T13:05:33;-5.77;57.63
79140;HTU21D;68546;59.142;37.948;2023-11-21T13:08:02;-5.75;57.59
79140;HTU21D;68546;59.142;37.948;2023-11-21T13:10:33;-5.75;57.62
79140;HTU21D;68546;59.142;37.948;2023-11-21T13:13:04;-5.73;57.71
79140;HTU21D;68546;59.142;37.948;2023-11-21T13:15:40;-5.71;57.73
79140;HTU21D;68546;59.142;37.948;2023-11-21T13:18:07;-5.70;57.72
79140;HTU21D;68546;59.142;37.948;2023-11-21T13:20:33;-5.69;57.71
79140;HTU21D;68546;59.142;37.948;2023-11-21T13:23:00;-5.69;57.71
79140;HTU21D;68546;59.142;37.948;2023-11-21T13:25:28;-5.68;57.71
79140;HTU21D;68546;59.142;37.948;2023-11-21T13:27:55;-5.68;57.72
79140;HTU21D;68546;59.142;37.948;2023-11-21T13:30:22;-5.69;57.75
79140;HTU21D;68546;59.142;37.948;2023-11-21T13:32:53;-5.67;57.82
79140;HTU21D;68546;59.142;37.948;2023-11-21T13:35:23;-5.67;57.98
79140;HTU21D;68546;59.142;37.948;2023-11-21T13:38:04;-5.67;58.02
79140;HTU21D;68546;59.142;37.948;2023-11-21T13:40:32;-5.63;58.09
79140;HTU21D;68546;59.142;37.948;2023-11-21T13:43:00;-5.63;58.17
79140;HTU21D;68546;59.142;37.948;2023-11-21T13:45:30;-5.62;58.18
79140;HTU21D;68546;59.142;37.948;2023-11-21T13:47:56;-5.60;58.25
79140;HTU21D;68546;59.142;37.948;2023-11-21T13:50:25;-5.60;58.26
79140;HTU21D;68546;59.142;37.948;2023-11-21T13:53:02;-5.58;58.26
79140;HTU21D;68546;59.142;37.948;2023-11-21T13:55:44;-5.57;58.25
79140;HTU21D;68546;59.142;37.948;2023-11-21T13:58:11;-5.58;58.28
79140;HTU21D;68546;59.142;37.948;2023-11-21T14:00:44;-5.58;58.25
79140;HTU21D;68546;59.142;37.948;2023-11-21T14:03:14;-5.59;58.25
79140;HTU21D;68546;59.142;37.948;2023-11-21T14:05:48;-5.59;58.29
79140;HTU21D;68546;59.142;37.948;2023-11-21T14:08:21;-5.60;58.38
79140;HTU21D;68546;59.142;37.948;2023-11-21T14:10:47;-5.60;58.42
79140;HTU21D;68546;59.142;37.948;2023-11-21T14:13:21;-5.60;58.40
79140;HTU21D;68546;59.142;37.948;2023-11-21T14:15:49;-5.58;58.44
79140;HTU21D;68546;59.142;37.948;2023-11-21T14:18:18;-5.58;58.45
79140;HTU21D;68546;59.142;37.948;2023-11-21T14:20:53;-5.58;58.55
79140;HTU21D;68546;59.142;37.948;2023-11-21T14:23:19;-5.58;58.59
79140;HTU21D;68546;59.142;37.948;2023-11-21T14:25:47;-5.57;58.61
79140;HTU21D;68546;59.142;37.948;2023-11-21T14:28:14;-5.56;58.60
79140;HTU21D;68546;59.142;37.948;2023-11-21T14:30:40;-5.56;58.55
79140;HTU21D;68546;59.142;37.948;2023-11-21T14:33:08;-5.57;58.61
79140;HTU21D;68546;59.142;37.948;2023-11-21T14:35:37;-5.56;58.66
79140;HTU21D;68546;59.142;37.948;2023-11-21T14:38:03;-5.55;58.71
79140;HTU21D;68546;59.142;37.948;2023-11-21T14:40:31;-5.54;58.80
79140;HTU21D;68546;59.142;37.948;2023-11-21T14:43:02;-5.53;58.86
79140;HTU21D;68546;59.142;37.948;2023-11-21T14:45:32;-5.52;58.86
79140;HTU21D;68546;59.142;37.948;2023-11-21T14:47:59;-5.52;58.93
79140;HTU21D;68546;59.142;37.948;2023-11-21T14:50:33;-5.48;58.96
79140;HTU21D;68546;59.142;37.948;2023-11-21T14:53:09;-5.46;59.07
79140;HTU21D;68546;59.142;37.948;2023-11-21T14:55:39;-5.45;59.06
79140;HTU21D;68546;59.142;37.948;2023-11-21T14:58:18;-5.44;59.06
79140;HTU21D;68546;59.142;37.948;2023-11-21T15:00:57;-5.42;59.12
79140;HTU21D;68546;59.142;37.948;2023-11-21T15:03:28;-5.40;59.10
79140;HTU21D;68546;59.142;37.948;2023-11-21T15:06:03;-5.40;59.22
79140;HTU21D;68546;59.142;37.948;2023-11-21T15:08:55;-5.37;59.42
79140;HTU21D;68546;59.142;37.948;2023-11-21T15:11:34;-5.34;59.44
79140;HTU21D;68546;59.142;37.948;2023-11-21T15:14:01;-5.32;59.52
79140;HTU21D;68546;59.142;37.948;2023-11-21T15:16:33;-5.30;59.58
79140;HTU21D;68546;59.142;37.948;2023-11-21T15:19:04;-5.29;59.63